Time;durP1;ratioP1;P1;durP2;ratioP2;P2;SDS_P1;SDS_P2;PMS_P1;PMS_P2;Temp;Humidity;BMP_temperature;BMP_pressure;BME280_temperature;BME280_humidity;BME280_pressure;Samples;Min_cycle;Max_cycle;Signal;HPM_P1;HPM_P2
2022/04/07 00:01:54;;;;;;;5.33;1.30;;;;;;;13.02;nan;102070.31;4984866;28;20444;-89
2022/04/07 00:04:22;;;;;;;4.03;1.07;;;;;;;13.02;nan;102078.53;4983585;28;20471;-89
2022/04/07 00:06:50;;;;;;;3.93;0.83;;;;;;;12.99;nan;102081.63;4983869;28;20440;-89
2022/04/07 00:09:18;;;;;;;5.60;0.93;;;;;;;12.97;nan;102074.63;4999052;28;20480;-89
2022/04/07 00:11:46;;;;;;;7.70;0.93;;;;;;;12.93;nan;102073.25;4983152;28;20428;-89
2022/04/07 00:14:14;;;;;;;6.83;1.00;;;;;;;12.95;nan;102077.53;5015298;28;20440;-88
2022/04/07 00:16:43;;;;;;;4.97;0.90;;;;;;;12.89;nan;102061.78;5016121;28;20450;-88
2022/04/07 00:19:12;;;;;;;3.67;0.90;;;;;;;12.95;nan;102071.19;4999393;28;20989;-89
2022/04/07 00:21:42;;;;;;;6.63;1.90;;;;;;;12.90;nan;102062.63;4998581;28;20528;-89
2022/04/07 00:24:13;;;;;;;3.77;0.87;;;;;;;12.96;nan;102079.25;4983437;28;20448;-89
2022/04/07 00:26:47;;;;;;;5.73;0.93;;;;;;;12.95;nan;102080.28;4982905;28;20456;-89
2022/04/07 00:29:14;;;;;;;4.20;0.90;;;;;;;12.82;nan;102063.53;4999063;28;20981;-88
2022/04/07 00:31:42;;;;;;;8.10;0.90;;;;;;;12.83;nan;102059.75;4999326;28;20993;-90
2022/04/07 00:34:13;;;;;;;4.50;1.03;;;;;;;12.90;nan;102074.44;4998514;28;20428;-90
2022/04/07 00:36:41;;;;;;;2.77;0.90;;;;;;;12.93;nan;102082.34;5014941;28;20453;-89
2022/04/07 00:39:09;;;;;;;4.93;1.47;;;;;;;12.90;nan;102077.19;5000298;28;20468;-89
2022/04/07 00:41:39;;;;;;;7.70;2.00;;;;;;;12.86;nan;102072.25;4998294;28;20457;-89
2022/04/07 00:44:08;;;;;;;14.80;1.53;;;;;;;12.86;nan;102072.25;5014540;28;20479;-89
2022/04/07 00:46:37;;;;;;;8.00;1.53;;;;;;;12.90;nan;102082.69;4998157;28;20444;-88
2022/04/07 00:49:05;;;;;;;5.83;1.63;;;;;;;12.89;nan;102078.25;5014725;28;20488;-89
2022/04/07 00:51:34;;;;;;;6.33;1.57;;;;;;;12.78;nan;102065.75;4998702;28;20483;-88
2022/04/07 00:54:03;;;;;;;5.57;0.83;;;;;;;12.77;nan;102075.00;5014468;28;20452;-89
2022/04/07 00:56:31;;;;;;;5.80;1.20;;;;;;;12.86;nan;102089.59;5015166;28;20460;-89
2022/04/07 00:58:58;;;;;;;4.97;1.87;;;;;;;12.86;nan;102081.34;5014342;28;20525;-88
2022/04/07 01:01:28;;;;;;;9.63;0.80;;;;;;;12.82;nan;102085.47;4998238;28;20844;-89
2022/04/07 01:03:57;;;;;;;6.90;1.60;;;;;;;12.82;nan;102074.50;4998540;28;20455;-88
2022/04/07 01:06:25;;;;;;;5.10;1.40;;;;;;;12.81;nan;102075.53;4998771;28;20950;-89
2022/04/07 01:08:54;;;;;;;2.90;0.90;;;;;;;12.70;nan;102060.28;5014590;28;20990;-89
2022/04/07 01:11:24;;;;;;;6.10;1.17;;;;;;;12.77;nan;102072.28;4998184;28;20448;-89
2022/04/07 01:13:52;;;;;;;7.13;1.00;;;;;;;12.79;nan;102072.09;4998049;28;20448;-90
2022/04/07 01:16:27;;;;;;;6.50;1.33;;;;;;;12.76;nan;102077.94;4998326;28;20444;-89
2022/04/07 01:18:59;;;;;;;4.73;1.30;;;;;;;12.76;nan;102077.94;4998763;28;20814;-89
2022/04/07 01:21:30;;;;;;;3.70;0.80;;;;;;;12.70;nan;102075.91;4997928;28;20472;-88
2022/04/07 01:24:31;;;;;;;9.70;1.20;;;;;;;12.70;nan;102073.16;5013936;28;20511;-89
2022/04/07 01:27:00;;;;;;;6.90;1.00;;;;;;;12.65;nan;102075.56;4997743;28;20927;-89
2022/04/07 01:29:29;;;;;;;2.50;0.90;;;;;;;12.57;nan;102064.59;5013583;28;20883;-88
2022/04/07 01:31:58;;;;;;;4.57;1.00;;;;;;;12.53;nan;102058.59;4997889;28;20502;-89
2022/04/07 01:34:29;;;;;;;4.20;1.00;;;;;;;12.54;nan;102064.94;4998051;28;20795;-89
2022/04/07 01:36:56;;;;;;;1.70;0.70;;;;;;;12.54;nan;102064.94;5014024;28;20513;-90
2022/04/07 01:39:27;;;;;;;4.33;1.10;;;;;;;12.55;nan;102063.91;4981879;28;20456;-90
2022/04/07 01:42:08;;;;;;;7.30;1.30;;;;;;;12.50;nan;102055.38;4998341;28;20432;-90
2022/04/07 01:44:38;;;;;;;5.67;1.27;;;;;;;12.55;nan;102061.19;5013248;28;20444;-89
2022/04/07 01:47:06;;;;;;;8.73;1.10;;;;;;;12.51;nan;102057.09;4997306;28;21005;-90
2022/04/07 01:49:35;;;;;;;6.23;0.93;;;;;;;12.55;nan;102061.19;4996830;28;20495;-90
2022/04/07 01:52:08;;;;;;;3.40;1.10;;;;;;;12.56;nan;102049.19;4997184;28;20460;-89
2022/04/07 01:54:36;;;;;;;3.47;1.10;;;;;;;12.47;nan;102044.75;4996354;28;20455;-91
2022/04/07 01:57:05;;;;;;;2.67;0.97;;;;;;;12.53;nan;102061.34;4996607;28;20480;-89
2022/04/07 01:59:34;;;;;;;3.53;0.83;;;;;;;12.52;nan;102058.78;4996948;28;20449;-89
2022/04/07 02:02:06;;;;;;;5.70;1.33;;;;;;;12.51;nan;102057.91;4997059;28;20456;-88
2022/04/07 02:04:34;;;;;;;6.40;1.37;;;;;;;12.50;nan;102060.88;5012906;28;20942;-89
2022/04/07 02:07:02;;;;;;;6.83;2.73;;;;;;;12.52;nan;102064.25;5013157;28;20942;-88
2022/04/07 02:09:33;;;;;;;9.90;1.70;;;;;;;12.48;nan;102063.78;5012520;28;20480;-88
2022/04/07 02:12:04;;;;;;;5.17;1.70;;;;;;;12.41;nan;102062.75;5012789;28;20476;-88
2022/04/07 02:14:33;;;;;;;5.33;1.73;;;;;;;12.42;nan;102065.31;4997337;28;20437;-89
2022/04/07 02:17:02;;;;;;;8.00;2.27;;;;;;;12.38;nan;102058.47;4981609;28;20935;-89
2022/04/07 02:19:30;;;;;;;7.77;2.27;;;;;;;12.42;nan;102061.72;4996939;28;20441;-90
2022/04/07 02:21:59;;;;;;;9.57;1.23;;;;;;;12.37;nan;102056.75;5012139;28;20487;-89
2022/04/07 02:24:27;;;;;;;10.13;1.53;;;;;;;12.38;nan;102058.47;4996697;28;20440;-88
2022/04/07 02:26:56;;;;;;;4.13;0.80;;;;;;;12.27;nan;102045.13;4996664;28;20445;-90
2022/04/07 02:29:24;;;;;;;9.97;1.60;;;;;;;12.31;nan;102046.50;4996129;28;20495;-90
2022/04/07 02:31:51;;;;;;;11.80;1.20;;;;;;;12.30;nan;102044.78;5012240;28;20506;-89
2022/04/07 02:34:19;;;;;;;9.13;1.37;;;;;;;12.29;nan;102053.19;5012834;28;20444;-89
2022/04/07 02:36:48;;;;;;;8.77;1.50;;;;;;;12.27;nan;102061.56;5012722;28;20946;-89
2022/04/07 02:39:16;;;;;;;5.07;1.47;;;;;;;12.17;nan;102049.91;4995926;28;20448;-91
2022/04/07 02:41:46;;;;;;;8.80;1.67;;;;;;;12.17;nan;102052.66;5024711;28;20454;-90
2022/04/07 02:44:17;;;;;;;9.33;1.40;;;;;;;12.12;nan;102046.88;5032109;28;20805;-89
2022/04/07 02:46:44;;;;;;;7.13;1.30;;;;;;;12.15;nan;102056.59;5016590;28;20447;-90
2022/04/07 02:49:12;;;;;;;3.33;0.93;;;;;;;12.19;nan;102058.81;5015866;28;20502;-89
2022/04/07 02:51:41;;;;;;;3.57;1.00;;;;;;;12.15;nan;102051.97;5032146;28;20504;-89
2022/04/07 02:54:09;;;;;;;7.17;2.20;;;;;;;12.21;nan;102050.44;5016109;28;20443;-89
2022/04/07 02:56:37;;;;;;;3.00;0.90;;;;;;;12.19;nan;102044.25;5001296;28;20891;-89
2022/04/07 02:59:06;;;;;;;1.97;0.83;;;;;;;12.23;nan;102060.19;5020123;28;20455;-89
2022/04/07 03:01:34;;;;;;;5.23;1.07;;;;;;;12.24;nan;102050.94;5019990;28;20512;-89
2022/04/07 03:04:02;;;;;;;3.83;1.00;;;;;;;12.16;nan;102030.91;5036069;28;20585;-89
2022/04/07 03:06:29;;;;;;;5.13;1.00;;;;;;;12.28;nan;102055.06;5003697;28;20790;-89
2022/04/07 03:08:57;;;;;;;4.50;1.10;;;;;;;12.24;nan;102053.69;5003568;28;20940;-89
2022/04/07 03:11:25;;;;;;;1.67;0.73;;;;;;;12.12;nan;102046.88;5003278;28;20450;-89
2022/04/07 03:13:53;;;;;;;6.60;1.80;;;;;;;12.15;nan;102060.19;5019271;28;20447;-89
2022/04/07 03:16:21;;;;;;;6.03;1.10;;;;;;;12.16;nan;102061.06;5019696;28;20451;-89
2022/04/07 03:18:48;;;;;;;2.83;1.23;;;;;;;12.15;nan;102057.44;5037043;28;20428;-89
2022/04/07 03:21:15;;;;;;;6.70;1.53;;;;;;;12.14;nan;102063.09;5035211;28;20974;-89
2022/04/07 03:23:44;;;;;;;4.33;1.17;;;;;;;12.12;nan;102059.72;5019382;28;20857;-89
2022/04/07 03:26:12;;;;;;;5.17;0.67;;;;;;;12.03;nan;102059.69;5019311;28;20447;-89
2022/04/07 03:28:40;;;;;;;6.50;1.10;;;;;;;12.02;nan;102048.91;5019662;28;20978;-88
2022/04/07 03:31:08;;;;;;;9.10;1.23;;;;;;;11.96;nan;102041.34;5019440;28;20451;-89
2022/04/07 03:33:35;;;;;;;4.97;0.77;;;;;;;12.04;nan;102055.06;5019263;28;20458;-89
2022/04/07 03:36:04;;;;;;;3.80;1.00;;;;;;;12.07;nan;102061.06;5035459;28;20458;-90
2022/04/07 03:38:31;;;;;;;3.40;1.00;;;;;;;12.09;nan;102058.16;5018613;28;20946;-89
2022/04/07 03:40:59;;;;;;;7.20;1.00;;;;;;;12.03;nan;102056.09;5034881;28;20439;-89
2022/04/07 03:43:27;;;;;;;3.83;1.00;;;;;;;12.01;nan;102048.03;5002499;28;20984;-89
2022/04/07 03:45:55;;;;;;;3.43;1.10;;;;;;;12.05;nan;102063.13;5034869;28;20961;-88
2022/04/07 03:48:23;;;;;;;3.23;1.30;;;;;;;12.01;nan;102055.41;5019059;28;20478;-90
2022/04/07 03:50:52;;;;;;;3.63;0.87;;;;;;;12.00;nan;102060.03;5019237;28;20454;-90
2022/04/07 03:53:29;;;;;;;3.80;1.10;;;;;;;11.99;nan;102069.28;5035273;28;20457;-90
2022/04/07 03:55:57;;;;;;;4.97;0.90;;;;;;;11.98;nan;102072.19;5018611;28;20454;-90
2022/04/07 03:58:29;;;;;;;3.80;1.23;;;;;;;11.93;nan;102069.13;5035834;28;20444;-90
2022/04/07 04:00:58;;;;;;;3.73;0.93;;;;;;;11.85;nan;102066.38;5003741;28;20485;-89
2022/04/07 04:03:26;;;;;;;6.77;0.97;;;;;;;11.85;nan;102074.56;5002990;28;20455;-90
2022/04/07 04:05:54;;;;;;;3.00;1.10;;;;;;;11.76;nan;102070.97;5002785;28;20448;-89
2022/04/07 04:08:22;;;;;;;4.10;0.97;;;;;;;11.63;nan;102051.41;5033537;28;20447;-89
2022/04/07 04:10:54;;;;;;;6.60;1.10;;;;;;;11.64;nan;102067.66;5034728;28;20528;-89
2022/04/07 04:13:24;;;;;;;6.17;1.43;;;;;;;11.57;nan;102066.63;5002800;28;20440;-89
2022/04/07 04:15:52;;;;;;;3.77;1.33;;;;;;;11.50;nan;102060.13;4943521;28;20450;-90
2022/04/07 04:18:20;;;;;;;8.00;1.10;;;;;;;11.46;nan;102074.31;4943301;28;20442;-89
2022/04/07 04:20:49;;;;;;;11.83;2.27;;;;;;;11.38;nan;102064.19;4957922;28;20504;-89
2022/04/07 04:23:19;;;;;;;4.30;1.23;;;;;;;11.33;nan;102067.44;4905059;29;20450;-89
2022/04/07 04:25:47;;;;;;;6.53;1.50;;;;;;;11.24;nan;102067.56;4905071;29;20479;-89
2022/04/07 04:28:17;;;;;;;16.43;2.90;;;;;;;11.21;nan;102071.47;4920503;29;20550;-89
2022/04/07 04:30:44;;;;;;;6.93;1.40;;;;;;;11.17;nan;102070.09;4905132;29;20487;-89
2022/04/07 04:33:12;;;;;;;10.60;2.77;;;;;;;11.00;nan;102058.22;4904971;29;20456;-89
2022/04/07 04:35:40;;;;;;;6.53;1.10;;;;;;;11.04;nan;102070.56;4904965;29;21074;-89
2022/04/07 04:38:11;;;;;;;7.67;1.47;;;;;;;10.99;nan;102067.44;4889435;29;20474;-89
2022/04/07 04:40:39;;;;;;;4.20;1.60;;;;;;;10.97;nan;102069.50;4961170;28;20984;-90
2022/04/07 04:43:07;;;;;;;5.37;1.27;;;;;;;10.94;nan;102074.47;4965069;28;20449;-89
2022/04/07 04:45:34;;;;;;;3.10;0.90;;;;;;;10.87;nan;102070.66;4962791;28;20508;-89
2022/04/07 04:48:02;;;;;;;7.67;0.97;;;;;;;10.87;nan;102076.97;4978716;28;20505;-90
2022/04/07 04:50:30;;;;;;;4.67;1.43;;;;;;;10.83;nan;102086.53;4947119;28;20481;-89
2022/04/07 04:52:58;;;;;;;2.60;0.90;;;;;;;10.75;nan;102081.03;4962818;28;20465;-89
2022/04/07 04:55:27;;;;;;;6.90;1.10;;;;;;;10.70;nan;102083.38;4947323;28;20433;-89
2022/04/07 04:57:57;;;;;;;2.50;1.00;;;;;;;10.61;nan;102081.59;4947328;28;20456;-90
2022/04/07 05:00:46;;;;;;;4.87;0.70;;;;;;;10.57;nan;102093.91;4962652;28;20834;-90
2022/04/07 05:03:16;;;;;;;4.10;1.20;;;;;;;10.44;nan;102080.63;4978456;28;20453;-90
2022/04/07 05:05:44;;;;;;;1.47;0.70;;;;;;;10.42;nan;102090.00;4947075;28;20460;-90
2022/04/07 05:08:13;;;;;;;1.20;0.70;;;;;;;10.28;nan;102081.38;4962630;28;20853;-90
2022/04/07 05:10:41;;;;;;;2.40;1.00;;;;;;;10.32;nan;102093.72;4962596;28;20493;-90
2022/04/07 05:13:08;;;;;;;2.80;0.80;;;;;;;10.32;nan;102093.72;4946628;28;20453;-89
2022/04/07 05:15:39;;;;;;;1.10;0.60;;;;;;;10.27;nan;102089.75;4946677;28;20955;-89
2022/04/07 05:18:07;;;;;;;4.87;1.03;;;;;;;10.17;nan;102083.50;4962542;28;20954;-89
2022/04/07 05:20:37;;;;;;;2.70;0.80;;;;;;;10.19;nan;102087.81;4962307;28;20445;-89
2022/04/07 05:23:05;;;;;;;7.40;0.70;;;;;;;10.26;nan;102099.81;4996629;28;20521;-90
2022/04/07 05:25:33;;;;;;;4.20;0.80;;;;;;;10.24;nan;102106.44;4981790;28;20456;-89
2022/04/07 05:28:01;;;;;;;2.23;0.80;;;;;;;10.17;nan;102100.75;4997656;28;20495;-89
2022/04/07 05:30:30;;;;;;;6.47;1.00;;;;;;;10.09;nan;102105.25;5014043;28;21045;-89
2022/04/07 05:32:58;;;;;;;2.23;0.67;;;;;;;10.05;nan;102107.44;4982003;28;20479;-89
2022/04/07 05:35:28;;;;;;;2.07;0.70;;;;;;;9.99;nan;102113.56;4981612;28;20494;-89
2022/04/07 05:37:59;;;;;;;1.70;1.17;;;;;;;9.94;nan;102111.28;4997544;28;20444;-89
2022/04/07 05:40:27;;;;;;;3.70;1.30;;;;;;;9.99;nan;102121.75;4997829;28;20448;-89
2022/04/07 05:42:56;;;;;;;3.47;1.40;;;;;;;9.91;nan;102116.19;4981498;28;20499;-88
2022/04/07 05:45:24;;;;;;;2.33;0.90;;;;;;;9.90;nan;102118.06;5013348;28;20503;-89
2022/04/07 05:47:52;;;;;;;3.40;0.80;;;;;;;9.83;nan;102118.81;4980915;28;20822;-90
2022/04/07 05:50:19;;;;;;;7.43;1.30;;;;;;;9.74;nan;102119.78;4981343;28;20488;-89
2022/04/07 05:52:48;;;;;;;4.30;1.10;;;;;;;9.79;nan;102128.38;4980831;28;20819;-90
2022/04/07 05:55:16;;;;;;;4.50;0.90;;;;;;;9.76;nan;102128.69;5013194;28;20455;-89
2022/04/07 05:57:44;;;;;;;3.93;0.90;;;;;;;9.73;nan;102128.97;5014745;28;20436;-89
2022/04/07 06:00:17;;;;;;;2.43;0.73;;;;;;;9.68;nan;102130.28;4997120;28;20483;-88
2022/04/07 06:02:46;;;;;;;5.83;0.87;;;;;;;9.55;nan;102118.91;4982375;28;20459;-89
2022/04/07 06:05:18;;;;;;;1.90;0.90;;;;;;;9.44;nan;102102.72;4997515;28;20448;-89
2022/04/07 06:07:47;;;;;;;2.50;0.80;;;;;;;9.53;nan;102129.09;4981464;28;20938;-89
2022/04/07 06:10:15;;;;;;;1.73;1.10;;;;;;;9.42;nan;102110.22;4981388;28;20491;-89
2022/04/07 06:12:46;;;;;;;2.47;1.10;;;;;;;9.53;nan;102120.91;4997145;28;20701;-89
2022/04/07 06:15:14;;;;;;;7.07;0.90;;;;;;;9.53;nan;102122.78;4997679;28;20508;-89
2022/04/07 06:17:46;;;;;;;2.03;0.83;;;;;;;9.45;nan;102126.25;5013542;28;20453;-89
2022/04/07 06:20:14;;;;;;;3.03;0.90;;;;;;;9.48;nan;102134.16;5012863;28;20448;-89
2022/04/07 06:22:43;;;;;;;3.53;1.00;;;;;;;9.53;nan;102140.03;4996263;28;20464;-88
2022/04/07 06:25:14;;;;;;;1.87;0.90;;;;;;;9.56;nan;102138.88;4981278;28;20490;-89
2022/04/07 06:27:47;;;;;;;3.43;0.90;;;;;;;9.58;nan;102136.84;4996936;28;20471;-89
2022/04/07 06:30:16;;;;;;;1.60;0.87;;;;;;;9.57;nan;102135.13;4980776;28;20476;-89
2022/04/07 06:32:45;;;;;;;9.63;1.03;;;;;;;9.56;nan;102134.25;4980242;28;20452;-88
2022/04/07 06:35:19;;;;;;;4.20;0.93;;;;;;;9.60;nan;102145.75;4996981;28;20997;-89
2022/04/07 06:37:55;;;;;;;2.40;0.93;;;;;;;9.48;nan;102131.44;4980638;28;20444;-88
2022/04/07 06:40:29;;;;;;;1.73;0.80;;;;;;;9.60;nan;102152.06;4981978;28;20452;-87
2022/04/07 06:42:58;;;;;;;2.30;0.90;;;;;;;9.67;nan;102144.09;5015369;28;20456;-88
2022/04/07 06:45:27;;;;;;;2.90;0.93;;;;;;;9.67;nan;102139.50;4980632;28;20444;-88
2022/04/07 06:47:57;;;;;;;1.53;0.90;;;;;;;9.79;nan;102156.53;4996488;28;20462;-88
2022/04/07 06:50:25;;;;;;;3.20;0.83;;;;;;;9.74;nan;102142.47;4980608;28;20546;-89
2022/04/07 06:52:54;;;;;;;3.20;1.17;;;;;;;9.92;nan;102162.47;4996681;28;20510;-89
2022/04/07 06:55:22;;;;;;;3.17;1.00;;;;;;;10.02;nan;102165.09;4997108;28;20428;-89
2022/04/07 06:58:00;;;;;;;4.50;1.13;;;;;;;10.08;nan;102169.97;5012621;28;20432;-89
2022/04/07 07:00:34;;;;;;;3.40;1.20;;;;;;;10.13;nan;102153.09;5013847;28;20447;-89
2022/04/07 07:03:03;;;;;;;5.43;0.90;;;;;;;10.25;nan;102160.94;4996822;28;20452;-89
2022/04/07 07:05:33;;;;;;;1.30;0.87;;;;;;;10.33;nan;102171.94;4980918;28;20433;-89
2022/04/07 07:08:11;;;;;;;6.83;1.30;;;;;;;10.46;nan;102177.00;4996567;28;20448;-89
2022/04/07 07:10:39;;;;;;;3.30;0.90;;;;;;;10.56;nan;102168.72;5013283;28;21001;-88
2022/04/07 07:13:06;;;;;;;5.03;0.80;;;;;;;10.66;nan;102161.28;4995847;28;20455;-89
2022/04/07 07:15:35;;;;;;;3.47;1.10;;;;;;;10.85;nan;102171.16;4980568;28;20470;-88
2022/04/07 07:18:03;;;;;;;2.20;0.90;;;;;;;10.97;nan;102176.19;4980252;28;20455;-88
2022/04/07 07:20:31;;;;;;;2.30;0.77;;;;;;;11.12;nan;102172.88;4980462;28;20459;-88
2022/04/07 07:23:07;;;;;;;4.27;1.03;;;;;;;11.31;nan;102172.63;4981289;28;20539;-89
2022/04/07 07:25:35;;;;;;;4.83;1.20;;;;;;;11.43;nan;102180.38;4996328;28;20455;-90
2022/04/07 07:28:04;;;;;;;3.37;1.00;;;;;;;11.56;nan;102171.69;4995753;28;20448;-88
2022/04/07 07:30:32;;;;;;;1.67;0.80;;;;;;;11.67;nan;102168.66;4980135;28;20530;-89
2022/04/07 07:33:01;;;;;;;3.83;1.27;;;;;;;11.79;nan;102168.38;4980068;28;20459;-89
2022/04/07 07:35:29;;;;;;;2.47;1.10;;;;;;;11.87;nan;102158.31;4980180;28;20533;-88
2022/04/07 07:37:59;;;;;;;4.83;1.23;;;;;;;12.11;nan;102184.91;4940387;28;20453;-90
2022/04/07 07:40:31;;;;;;;1.97;0.83;;;;;;;12.17;nan;102181.47;4940352;28;20450;-89
2022/04/07 07:43:01;;;;;;;5.20;0.80;;;;;;;12.25;nan;102178.75;4957741;28;20450;-89
2022/04/07 07:45:32;;;;;;;2.50;0.90;;;;;;;12.40;nan;102190.75;4959466;28;20458;-89
2022/04/07 07:48:28;;;;;;;6.73;1.20;;;;;;;12.49;nan;102197.13;4962091;28;20438;-89
2022/04/07 07:50:57;;;;;;;2.60;0.90;;;;;;;12.56;nan;102191.78;4944097;28;20485;-90
2022/04/07 07:53:25;;;;;;;3.83;0.90;;;;;;;12.65;nan;102196.25;4943634;28;20956;-88
2022/04/07 07:55:54;;;;;;;1.83;0.80;;;;;;;12.75;nan;102202.41;4961057;28;20452;-89
2022/04/07 07:58:26;;;;;;;3.37;0.80;;;;;;;12.81;nan;102190.75;4999969;28;20447;-89
2022/04/07 08:00:55;;;;;;;2.90;1.00;;;;;;;12.88;nan;102205.50;4999543;28;20951;-89
2022/04/07 08:03:25;;;;;;;10.07;1.17;;;;;;;12.89;nan;102199.00;4984183;28;20451;-89
2022/04/07 08:05:54;;;;;;;2.87;1.00;;;;;;;12.85;nan;102191.28;4998898;28;20946;-89
2022/04/07 08:08:21;;;;;;;1.77;0.73;;;;;;;12.99;nan;102204.28;4999118;28;20441;-90
2022/04/07 08:10:49;;;;;;;2.63;0.63;;;;;;;13.07;nan;102198.78;4982989;28;20475;-90
2022/04/07 08:13:18;;;;;;;3.83;0.97;;;;;;;13.11;nan;102192.75;5016222;28;20452;-89
2022/04/07 08:15:46;;;;;;;4.63;0.87;;;;;;;13.21;nan;102219.19;4983161;28;20451;-90
2022/04/07 08:18:15;;;;;;;3.50;1.20;;;;;;;13.30;nan;102218.13;4998493;28;20456;-89
2022/04/07 08:20:43;;;;;;;5.03;0.80;;;;;;;13.36;nan;102211.94;4982762;28;20448;-89
2022/04/07 08:23:12;;;;;;;2.70;1.00;;;;;;;13.43;nan;102213.81;5014452;28;20460;-89
2022/04/07 08:25:41;;;;;;;8.53;1.10;;;;;;;13.50;nan;102219.44;4983608;28;20444;-89
2022/04/07 08:28:11;;;;;;;5.30;0.90;;;;;;;13.54;nan;102219.97;5015517;28;20459;-89
2022/04/07 08:30:38;;;;;;;1.73;0.80;;;;;;;13.57;nan;102227.84;4998943;28;20515;-89
2022/04/07 08:33:08;;;;;;;3.27;0.83;;;;;;;13.53;nan;102215.50;4983085;28;20451;-89
2022/04/07 08:35:44;;;;;;;5.70;1.20;;;;;;;13.57;nan;102214.13;4999679;28;20451;-89
2022/04/07 08:38:15;;;;;;;2.60;0.87;;;;;;;13.66;nan;102219.38;5014801;28;20436;-89
2022/04/07 08:40:44;;;;;;;4.20;0.93;;;;;;;13.73;nan;102228.63;4983725;28;20460;-90
2022/04/07 08:43:12;;;;;;;3.37;1.00;;;;;;;13.77;nan;102219.00;4986572;28;20479;-89
2022/04/07 08:45:42;;;;;;;5.47;0.90;;;;;;;13.83;nan;102229.31;4982529;28;20533;-90
2022/04/07 08:48:12;;;;;;;2.40;1.07;;;;;;;13.92;nan;102218.25;4982546;28;20471;-89
2022/04/07 08:50:42;;;;;;;6.90;1.03;;;;;;;14.00;nan;102221.81;4998183;28;20472;-89
2022/04/07 08:53:11;;;;;;;8.23;1.43;;;;;;;14.08;nan;102218.16;4981782;28;20802;-89
2022/04/07 08:55:39;;;;;;;8.10;3.20;;;;;;;14.19;nan;102226.00;4981790;28;20872;-89
2022/04/07 08:58:10;;;;;;;6.60;2.70;;;;;;;14.34;nan;102223.31;4981779;28;20463;-88
2022/04/07 09:00:38;;;;;;;6.50;1.60;;;;;;;14.45;nan;102229.28;4998250;28;21018;-90
2022/04/07 09:03:06;;;;;;;6.03;1.70;;;;;;;14.69;nan;102235.66;4998242;28;20444;-89
2022/04/07 09:05:38;;;;;;;4.50;2.50;;;;;;;14.80;nan;102210.44;5013931;28;20455;-89
2022/04/07 09:08:07;;;;;;;2.27;0.90;;;;;;;15.00;nan;102236.41;4981947;28;20448;-89
2022/04/07 09:10:35;;;;;;;3.70;1.10;;;;;;;15.07;nan;102225.50;4982239;28;20853;-89
2022/04/07 09:13:04;;;;;;;3.80;0.80;;;;;;;15.13;nan;102225.59;4981514;28;20881;-89
2022/04/07 09:15:32;;;;;;;3.57;0.80;;;;;;;15.10;nan;102216.88;4982519;28;20448;-89
2022/04/07 09:18:01;;;;;;;4.97;0.80;;;;;;;15.19;nan;102233.13;4981721;28;20525;-90
2022/04/07 09:20:29;;;;;;;1.97;0.60;;;;;;;15.20;nan;102234.81;4981730;28;20491;-89
2022/04/07 09:22:58;;;;;;;1.97;0.80;;;;;;;15.23;nan;102244.59;4981375;28;20820;-89
2022/04/07 09:25:27;;;;;;;3.07;1.50;;;;;;;15.26;nan;102240.63;4981837;28;20445;-89
2022/04/07 09:28:00;;;;;;;3.90;1.00;;;;;;;15.31;nan;102243.69;5013441;28;20459;-90
2022/04/07 09:30:42;;;;;;;4.83;0.87;;;;;;;15.41;nan;102249.75;5013697;28;20864;-90
2022/04/07 09:33:23;;;;;;;8.70;0.90;;;;;;;15.44;nan;102250.22;5013297;28;20506;-89
2022/04/07 09:36:00;;;;;;;2.30;0.73;;;;;;;15.54;nan;102244.47;4981467;28;20510;-89
2022/04/07 09:38:30;;;;;;;3.80;1.10;;;;;;;15.66;nan;102258.63;4981495;28;20482;-89
2022/04/07 09:41:11;;;;;;;6.73;1.10;;;;;;;15.74;nan;102262.16;4997390;28;20502;-89
2022/04/07 09:43:46;;;;;;;4.93;0.67;;;;;;;15.74;nan;102262.16;4981556;28;20441;-89
2022/04/07 09:46:20;;;;;;;3.60;0.70;;;;;;;15.78;nan;102257.09;4981827;28;20497;-89
2022/04/07 09:49:24;;;;;;;3.30;0.80;;;;;;;15.80;nan;102266.03;5013130;28;20900;-88
2022/04/07 09:51:52;;;;;;;2.83;0.80;;;;;;;15.80;nan;102255.88;4941507;28;20813;-89
2022/04/07 09:54:21;;;;;;;5.47;1.00;;;;;;;15.81;nan;102253.97;4926130;28;20454;-90
2022/04/07 09:56:49;;;;;;;6.50;1.27;;;;;;;15.86;nan;102244.09;4941966;28;20447;-89
2022/04/07 09:59:19;;;;;;;3.63;0.80;;;;;;;15.91;nan;102262.81;4957508;28;20450;-89
2022/04/07 10:01:50;;;;;;;4.03;1.07;;;;;;;15.93;nan;102254.34;4926418;28;20504;-89
2022/04/07 10:04:21;;;;;;;3.30;0.80;;;;;;;15.97;nan;102261.22;4926522;28;20465;-89
2022/04/07 10:06:48;;;;;;;3.80;0.90;;;;;;;16.04;nan;102271.25;4925705;28;20549;-89
2022/04/07 10:09:17;;;;;;;1.40;1.00;;;;;;;16.09;nan;102263.28;4925960;28;20549;-89
2022/04/07 10:11:45;;;;;;;2.80;0.50;;;;;;;16.16;nan;102261.44;4925628;28;20490;-89
2022/04/07 10:14:15;;;;;;;6.10;0.80;;;;;;;16.28;nan;102259.03;4972916;28;20458;-89
2022/04/07 10:16:45;;;;;;;2.80;0.60;;;;;;;16.42;nan;102266.41;4957088;28;20820;-89
2022/04/07 10:19:19;;;;;;;3.53;1.20;;;;;;;16.53;nan;102276.97;4925819;28;20446;-89
2022/04/07 10:21:55;;;;;;;7.30;3.07;;;;;;;16.67;nan;102269.69;4956161;28;20517;-89
2022/04/07 10:24:36;;;;;;;12.00;4.80;;;;;;;16.87;nan;102264.38;4956926;28;20833;-90
2022/04/07 10:27:29;;;;;;;5.57;1.47;;;;;;;16.89;nan;102271.41;4987466;28;20518;-89
2022/04/07 10:30:10;;;;;;;4.30;0.93;;;;;;;16.96;nan;102263.16;4981564;28;20436;-89
2022/04/07 10:32:46;;;;;;;3.77;0.90;;;;;;;17.04;nan;102260.28;4996764;28;20565;-89
2022/04/07 10:35:29;;;;;;;1.70;0.67;;;;;;;17.16;nan;102266.09;5012595;28;20585;-89
2022/04/07 10:37:59;;;;;;;12.90;1.60;;;;;;;17.17;nan;102260.38;5013228;28;20509;-90
2022/04/07 10:40:56;;;;;;;5.23;0.77;;;;;;;17.24;nan;102261.28;5014668;28;20451;-96
2022/04/07 10:43:27;;;;;;;1.37;0.60;;;;;;;17.48;nan;102257.22;4967385;28;20497;-90
2022/04/07 10:46:01;;;;;;;1.20;0.70;;;;;;;17.60;nan;102260.25;4941292;28;20454;-89
2022/04/07 10:48:58;;;;;;;2.50;1.20;;;;;;;17.66;nan;102253.09;4972739;28;20972;-89
2022/04/07 10:51:47;;;;;;;9.37;1.50;;;;;;;17.91;nan;102251.50;4969569;28;20481;-89
2022/04/07 10:54:17;;;;;;;1.47;0.70;;;;;;;17.97;nan;102260.91;4956589;28;20458;-89
2022/04/07 10:56:53;;;;;;;3.23;1.10;;;;;;;18.04;nan;102262.66;4972354;28;20458;-90
2022/04/07 10:59:27;;;;;;;2.30;0.80;;;;;;;17.99;nan;102248.59;4956750;28;20945;-91
2022/04/07 11:01:57;;;;;;;1.40;1.00;;;;;;;18.28;nan;102247.41;4956732;28;20972;-90
2022/04/07 11:04:56;;;;;;;1.60;0.73;;;;;;;18.46;nan;102255.16;4956933;28;20446;-93
2022/04/07 11:07:52;;;;;;;3.63;1.00;;;;;;;18.75;nan;102256.72;4957158;28;20449;-91
2022/04/07 11:10:48;;;;;;;4.00;0.83;;;;;;;18.91;nan;102250.75;4950866;28;20877;-88
2022/04/07 11:13:16;;;;;;;4.23;0.60;;;;;;;18.79;nan;102227.53;4957457;28;20841;-90
2022/04/07 11:15:57;;;;;;;1.30;0.60;;;;;;;18.83;nan;102235.22;4940626;28;21020;-88
2022/04/07 11:18:43;;;;;;;2.93;1.00;;;;;;;18.85;nan;102227.56;4974631;28;20450;-89
2022/04/07 11:21:11;;;;;;;11.97;1.03;;;;;;;18.82;nan;102229.88;5019992;28;20486;-88
2022/04/07 11:23:41;;;;;;;2.50;0.73;;;;;;;18.77;nan;102224.97;4967948;28;20451;-89
2022/04/07 11:26:24;;;;;;;2.30;0.70;;;;;;;18.81;nan;102223.50;4984133;28;20443;-88
2022/04/07 11:29:04;;;;;;;2.13;0.73;;;;;;;18.91;nan;102229.44;4985510;28;20452;-89
2022/04/07 11:32:03;;;;;;;1.47;0.80;;;;;;;18.94;nan;102220.72;5000474;28;20475;-89
2022/04/07 11:34:38;;;;;;;3.90;1.50;;;;;;;19.12;nan;102228.38;4986652;28;20818;-90
2022/04/07 11:37:10;;;;;;;3.10;1.00;;;;;;;19.29;nan;102212.16;4999353;28;20448;-89
2022/04/07 11:39:41;;;;;;;2.37;1.77;;;;;;;19.40;nan;102221.75;4968080;28;20448;-89
2022/04/07 11:42:14;;;;;;;2.47;1.30;;;;;;;19.45;nan;102221.94;4984356;28;20462;-89
2022/04/07 11:44:44;;;;;;;1.57;1.07;;;;;;;19.41;nan;102204.06;4983165;28;20486;-89
2022/04/07 11:47:23;;;;;;;3.07;1.50;;;;;;;19.53;nan;102219.81;4984001;28;20479;-89
2022/04/07 11:49:52;;;;;;;2.70;1.33;;;;;;;19.58;nan;102216.41;4967638;28;20502;-89
2022/04/07 11:52:28;;;;;;;8.33;2.13;;;;;;;19.74;nan;102220.63;4999485;28;20495;-89
2022/04/07 11:54:56;;;;;;;3.57;1.30;;;;;;;19.76;nan;102213.78;4983845;28;20447;-89
2022/04/07 11:57:25;;;;;;;3.10;1.37;;;;;;;19.69;nan;102210.19;4967213;28;20443;-89
2022/04/07 12:00:07;;;;;;;2.40;1.10;;;;;;;19.76;nan;102208.25;4999842;28;20455;-93